createdAt,value
2019-02-20T00:00:15.669Z,19.90
2019-02-20T00:02:45.334Z,21.87
2019-02-20T00:05:14.984Z,21.48
2019-02-20T00:07:44.763Z,18.35
2019-02-20T00:10:14.411Z,21.40
2019-02-20T00:12:44.119Z,16.15
2019-02-20T00:15:13.786Z,14.38
2019-02-20T00:17:43.490Z,18.40
2019-02-20T00:20:13.172Z,21.62
2019-02-20T00:22:42.816Z,17.95
2019-02-20T00:25:12.513Z,18.10
2019-02-20T00:27:42.250Z,16.85
2019-02-20T00:30:13.030Z,18.12
2019-02-20T00:32:42.750Z,19.23
2019-02-20T00:35:12.443Z,20.68
2019-02-20T00:37:42.107Z,20.25
2019-02-20T00:40:11.861Z,14.03
2019-02-20T00:42:41.559Z,16.27
2019-02-20T00:45:30.336Z,16.17
2019-02-20T00:48:28.110Z,19.17
2019-02-20T00:51:10.064Z,17.37
2019-02-20T00:53:45.849Z,18.90
2019-02-20T00:56:15.528Z,19.60
2019-02-20T00:58:45.172Z,18.07
2019-02-20T01:01:14.923Z,15.03
2019-02-20T01:03:44.554Z,13.83
2019-02-20T01:06:14.254Z,16.23
2019-02-20T01:08:44.051Z,16.95
2019-02-20T01:11:13.744Z,16.00
2019-02-20T01:13:43.423Z,18.40
2019-02-20T01:16:13.229Z,18.57
2019-02-20T01:18:42.883Z,17.48
2019-02-20T01:21:12.607Z,15.13
2019-02-20T01:23:42.486Z,18.75
2019-02-20T01:26:12.175Z,17.55
2019-02-20T01:28:41.832Z,18.48
2019-02-20T01:31:11.597Z,14.20
2019-02-20T01:33:41.242Z,15.13
2019-02-20T01:36:10.965Z,19.20
2019-02-20T01:38:40.675Z,13.90
2019-02-20T01:41:10.375Z,16.15
2019-02-20T01:43:40.063Z,20.68
2019-02-20T01:46:09.976Z,16.02
2019-02-20T01:48:39.696Z,17.62
2019-02-20T01:51:09.346Z,18.95
2019-02-20T01:53:38.999Z,15.05
2019-02-20T01:56:08.702Z,15.65
2019-02-20T01:58:38.431Z,21.02
2019-02-20T02:01:08.122Z,17.55
2019-02-20T02:03:39.054Z,18.12
2019-02-20T02:06:08.906Z,16.40
2019-02-20T02:08:38.569Z,16.17
2019-02-20T02:11:08.258Z,16.12
2019-02-20T02:13:37.909Z,19.02
2019-02-20T02:16:07.599Z,18.98
2019-02-20T02:18:37.299Z,18.00
2019-02-20T02:21:07.055Z,19.95
2019-02-20T02:23:36.771Z,18.17
2019-02-20T02:26:10.910Z,20.60
2019-02-20T02:28:37.794Z,21.20
2019-02-20T02:31:07.546Z,18.98
2019-02-20T02:33:37.193Z,21.48
2019-02-20T02:36:06.866Z,17.90
2019-02-20T02:38:36.506Z,17.35
2019-02-20T02:41:06.210Z,22.40
2019-02-20T02:43:35.830Z,13.38
2019-02-20T02:46:05.528Z,18.70
2019-02-20T02:48:35.254Z,20.62
2019-02-20T02:51:04.908Z,18.15
2019-02-20T02:53:34.641Z,19.87
2019-02-20T02:56:04.379Z,17.67
2019-02-20T02:58:34.065Z,19.02
2019-02-20T03:01:03.819Z,18.87
2019-02-20T03:03:33.518Z,17.50
2019-02-20T03:06:03.166Z,18.85
2019-02-20T03:08:32.935Z,16.40
2019-02-20T03:11:02.646Z,16.55
2019-02-20T03:13:32.432Z,20.43
2019-02-20T03:16:02.317Z,20.60
2019-02-20T03:18:32.007Z,26.40
2019-02-20T03:21:01.789Z,16.95
2019-02-20T03:23:40.016Z,16.32
2019-02-20T03:26:04.667Z,14.10
2019-02-20T03:28:34.376Z,20.92
2019-02-20T03:31:04.041Z,20.95
2019-02-20T03:33:33.718Z,14.50
2019-02-20T03:36:03.381Z,13.68
2019-02-20T03:38:33.090Z,17.15
2019-02-20T03:41:02.843Z,17.70
2019-02-20T03:43:32.507Z,13.45
2019-02-20T03:46:02.224Z,16.32
2019-02-20T03:48:31.904Z,10.63
2019-02-20T03:51:01.723Z,15.38
2019-02-20T03:53:31.501Z,16.15
2019-02-20T03:56:01.724Z,14.85
2019-02-20T03:58:33.203Z,20.08
2019-02-20T04:01:02.719Z,17.17
2019-02-20T04:03:32.419Z,16.02
2019-02-20T04:06:02.078Z,20.20
2019-02-20T04:08:31.761Z,12.70
2019-02-20T04:11:01.490Z,17.67
2019-02-20T04:13:31.190Z,15.20
2019-02-20T04:16:00.863Z,12.35
2019-02-20T04:18:30.632Z,16.17
2019-02-20T04:21:00.325Z,15.30
2019-02-20T04:23:30.136Z,15.58
2019-02-20T04:25:59.838Z,12.73
2019-02-20T04:28:29.516Z,13.53
2019-02-20T04:30:59.164Z,14.98
2019-02-20T04:33:28.879Z,12.18
2019-02-20T04:35:58.532Z,19.20
2019-02-20T04:38:28.238Z,15.95
2019-02-20T04:40:57.873Z,15.10
2019-02-20T04:43:27.549Z,13.98
2019-02-20T04:45:57.217Z,14.05
2019-02-20T04:48:26.899Z,13.13
2019-02-20T04:50:56.595Z,13.85
2019-02-20T04:53:26.352Z,15.58
2019-02-20T04:55:56.102Z,17.30
2019-02-20T04:58:25.870Z,16.65
2019-02-20T05:00:55.539Z,14.95
2019-02-20T05:03:25.231Z,16.37
2019-02-20T05:05:54.941Z,18.05
2019-02-20T05:08:24.689Z,14.28
2019-02-20T05:10:54.465Z,16.95
2019-02-20T05:13:24.289Z,18.67
2019-02-20T05:15:54.228Z,14.55
2019-02-20T05:18:23.927Z,18.55
2019-02-20T05:20:53.755Z,18.70
2019-02-20T05:23:23.494Z,14.13
2019-02-20T05:25:53.183Z,11.08
2019-02-20T05:28:22.961Z,13.98
2019-02-20T05:30:52.685Z,14.60
2019-02-20T05:33:22.396Z,15.35
2019-02-20T05:35:52.106Z,12.80
2019-02-20T05:38:21.747Z,14.33
2019-02-20T05:40:51.423Z,15.58
2019-02-20T05:43:21.067Z,15.50
2019-02-20T05:45:50.779Z,13.68
2019-02-20T05:48:20.459Z,13.75
2019-02-20T05:50:50.179Z,13.43
2019-02-20T05:53:19.951Z,18.12
2019-02-20T05:55:49.658Z,14.03
2019-02-20T05:58:19.301Z,12.80
2019-02-20T06:00:49.038Z,18.60
2019-02-20T06:03:18.891Z,15.45
2019-02-20T06:05:48.721Z,12.18
2019-02-20T06:08:18.481Z,16.15
2019-02-20T06:10:48.211Z,13.83
2019-02-20T06:13:17.895Z,13.65
2019-02-20T06:15:47.547Z,17.25
2019-02-20T06:18:17.274Z,14.53
2019-02-20T06:20:46.975Z,12.25
2019-02-20T06:23:16.673Z,14.45
2019-02-20T06:25:46.398Z,14.73
2019-02-20T06:28:16.067Z,13.68
2019-02-20T06:30:45.748Z,14.80
2019-02-20T06:33:15.485Z,15.72
2019-02-20T06:35:45.200Z,15.60
2019-02-20T06:38:14.866Z,17.57
2019-02-20T06:40:46.736Z,16.15
2019-02-20T06:43:17.492Z,21.10
2019-02-20T06:45:47.252Z,14.85
2019-02-20T06:48:18.405Z,14.68
2019-02-20T06:50:48.176Z,14.95
2019-02-20T06:53:17.873Z,15.78
2019-02-20T06:55:48.207Z,13.62
2019-02-20T06:58:17.876Z,14.10
2019-02-20T07:00:47.568Z,16.23
2019-02-20T07:03:17.274Z,12.43
2019-02-20T07:06:30.878Z,14.68
2019-02-20T07:09:48.901Z,19.00
2019-02-20T07:12:30.389Z,19.07
2019-02-20T07:15:59.278Z,17.07
2019-02-20T07:19:02.450Z,24.95
2019-02-20T07:22:18.091Z,16.97
2019-02-20T07:25:19.700Z,14.47
2019-02-20T07:28:47.552Z,13.78
2019-02-20T07:31:17.221Z,17.10
2019-02-20T07:33:46.905Z,14.53
2019-02-20T07:36:16.707Z,17.05
2019-02-20T07:38:46.377Z,20.65
2019-02-20T07:41:16.122Z,17.05
2019-02-20T07:43:45.794Z,17.40
2019-02-20T07:46:15.509Z,21.23
2019-02-20T07:48:45.202Z,16.37
2019-02-20T07:51:14.967Z,18.52
2019-02-20T07:53:44.676Z,20.82
2019-02-20T07:56:14.382Z,17.05
2019-02-20T07:58:44.012Z,22.05
2019-02-20T08:01:13.697Z,15.15
2019-02-20T08:03:43.369Z,21.65
2019-02-20T08:06:13.064Z,16.12
2019-02-20T08:08:42.763Z,17.05
2019-02-20T08:11:12.472Z,19.55
2019-02-20T08:13:42.139Z,16.85
2019-02-20T08:16:11.978Z,18.45
2019-02-20T08:18:41.937Z,15.88
2019-02-20T08:21:11.909Z,16.23
2019-02-20T08:23:41.856Z,19.52
2019-02-20T08:26:11.544Z,13.70
2019-02-20T08:28:41.277Z,18.07
2019-02-20T08:31:10.983Z,19.37
2019-02-20T08:33:40.729Z,22.82
2019-02-20T08:36:10.408Z,15.65
2019-02-20T08:38:40.135Z,21.65
2019-02-20T08:41:09.930Z,16.73
2019-02-20T08:43:39.609Z,17.48
2019-02-20T08:46:09.297Z,15.85
2019-02-20T08:48:39.030Z,12.70
2019-02-20T08:51:08.743Z,14.47
2019-02-20T08:53:38.479Z,14.73
2019-02-20T08:56:08.179Z,13.98
2019-02-20T08:58:37.888Z,14.87
2019-02-20T09:01:07.607Z,13.35
2019-02-20T09:03:37.314Z,15.30
2019-02-20T09:06:06.974Z,17.37
2019-02-20T09:08:37.141Z,13.68
2019-02-20T09:11:06.907Z,13.90
2019-02-20T09:13:36.953Z,10.65
2019-02-20T09:16:06.614Z,12.78
2019-02-20T09:18:36.314Z,13.85
2019-02-20T09:21:05.967Z,9.98
2019-02-20T09:23:35.785Z,11.18
2019-02-20T09:26:05.531Z,11.78
2019-02-20T09:28:37.151Z,11.38
2019-02-20T09:31:06.498Z,8.83
2019-02-20T09:33:36.208Z,13.15
2019-02-20T09:36:05.882Z,13.10
2019-02-20T09:38:38.726Z,10.40
2019-02-20T09:41:08.467Z,10.35
2019-02-20T09:43:38.137Z,8.25
2019-02-20T09:46:10.629Z,15.63
2019-02-20T09:48:40.302Z,13.75
2019-02-20T09:51:10.149Z,7.92
2019-02-20T09:53:39.834Z,8.95
2019-02-20T09:56:11.380Z,9.83
2019-02-20T09:58:41.261Z,14.00
2019-02-20T10:01:11.867Z,13.58
2019-02-20T10:03:41.598Z,10.68
2019-02-20T10:06:12.977Z,10.75
2019-02-20T10:08:42.852Z,8.83
2019-02-20T10:11:12.520Z,11.73
2019-02-20T10:13:42.276Z,11.22
2019-02-20T10:16:12.116Z,8.75
2019-02-20T10:18:41.964Z,11.50
2019-02-20T10:21:11.645Z,9.00
2019-02-20T10:23:41.358Z,7.80
2019-02-20T10:26:11.063Z,7.75
2019-02-20T10:28:40.896Z,10.28
2019-02-20T10:31:10.612Z,14.33
2019-02-20T10:33:40.275Z,9.00
2019-02-20T10:36:13.131Z,8.63
2019-02-20T10:38:42.822Z,7.70
2019-02-20T10:41:12.520Z,7.47
2019-02-20T10:43:42.251Z,10.72
2019-02-20T10:46:11.966Z,9.83
2019-02-20T10:48:41.637Z,9.25
2019-02-20T10:51:11.359Z,7.20
2019-02-20T10:53:41.177Z,8.48
2019-02-20T10:56:10.985Z,7.17
2019-02-20T10:58:43.151Z,8.63
2019-02-20T11:01:12.875Z,7.12
2019-02-20T11:03:42.716Z,6.87
2019-02-20T11:06:12.408Z,10.65
2019-02-20T11:08:42.194Z,7.80
2019-02-20T11:11:11.907Z,11.10
2019-02-20T11:13:41.631Z,6.50
2019-02-20T11:16:11.500Z,9.18
2019-02-20T11:18:41.187Z,5.92
2019-02-20T11:21:10.988Z,9.93
2019-02-20T11:23:40.686Z,6.12
2019-02-20T11:26:17.853Z,9.23
2019-02-20T11:28:41.743Z,10.23
2019-02-20T11:31:11.508Z,7.83
2019-02-20T11:33:41.250Z,6.72
2019-02-20T11:36:10.962Z,8.60
2019-02-20T11:38:40.614Z,6.10
2019-02-20T11:41:10.324Z,8.28
2019-02-20T11:43:42.974Z,7.28
2019-02-20T11:46:12.857Z,6.28
2019-02-20T11:48:42.567Z,10.30
2019-02-20T11:51:12.310Z,7.40
2019-02-20T11:53:42.183Z,6.95
2019-02-20T11:56:12.375Z,9.38
2019-02-20T11:58:42.184Z,9.33
2019-02-20T12:01:11.920Z,6.87
2019-02-20T12:03:41.621Z,11.15
2019-02-20T12:06:11.380Z,7.33
2019-02-20T12:08:42.090Z,16.32
2019-02-20T12:11:12.128Z,7.15
2019-02-20T12:13:41.767Z,7.10
2019-02-20T12:16:11.450Z,7.25
2019-02-20T12:18:41.092Z,7.55
2019-02-20T12:21:10.832Z,4.85
2019-02-20T12:23:40.501Z,6.90
2019-02-20T12:26:12.888Z,9.10
2019-02-20T12:28:42.531Z,5.75
2019-02-20T12:31:15.255Z,12.85
2019-02-20T12:33:45.351Z,7.20
2019-02-20T12:36:15.166Z,9.13
2019-02-20T12:38:45.958Z,9.85
2019-02-20T12:41:15.658Z,6.58
2019-02-20T12:43:45.351Z,10.15
2019-02-20T12:46:15.098Z,6.85
2019-02-20T12:48:44.864Z,9.08
2019-02-20T12:51:14.516Z,18.40
2019-02-20T12:53:44.391Z,7.28
2019-02-20T12:56:14.096Z,5.65
2019-02-20T12:58:45.693Z,8.15
2019-02-20T13:01:15.424Z,9.63
2019-02-20T13:03:45.205Z,7.80
2019-02-20T13:06:14.918Z,6.92
2019-02-20T13:08:44.800Z,7.83
2019-02-20T13:11:14.710Z,5.58
2019-02-20T13:13:44.393Z,7.97
2019-02-20T13:16:14.048Z,5.87
2019-02-20T13:18:43.802Z,4.78
2019-02-20T13:21:13.484Z,6.22
2019-02-20T13:23:43.166Z,4.67
2019-02-20T13:26:12.896Z,7.47
2019-02-20T13:28:42.593Z,8.55
2019-02-20T13:31:12.277Z,5.90
2019-02-20T13:33:41.986Z,9.08
2019-02-20T13:36:11.622Z,6.85
2019-02-20T13:38:41.319Z,6.58
2019-02-20T13:41:12.541Z,6.40
2019-02-20T13:43:42.412Z,9.60
2019-02-20T13:46:12.067Z,9.73
2019-02-20T13:48:41.750Z,6.42
2019-02-20T13:51:11.403Z,6.08
2019-02-20T13:53:46.423Z,8.00
2019-02-20T13:56:12.725Z,6.30
2019-02-20T13:58:43.802Z,9.05
2019-02-20T14:01:13.527Z,8.63
2019-02-20T14:03:43.204Z,9.58
2019-02-20T14:06:12.868Z,8.60
2019-02-20T14:08:42.794Z,6.33
2019-02-20T14:11:12.790Z,8.75
2019-02-20T14:13:42.631Z,8.10
2019-02-20T14:16:12.273Z,14.15
2019-02-20T14:18:42.099Z,8.68
2019-02-20T14:21:11.883Z,7.25
2019-02-20T14:23:41.592Z,12.68
2019-02-20T14:26:11.620Z,6.22
2019-02-20T14:28:41.322Z,7.35
2019-02-20T14:31:10.970Z,10.18
2019-02-20T14:33:40.713Z,10.72
2019-02-20T14:36:10.386Z,8.98
2019-02-20T14:38:40.046Z,12.00
2019-02-20T14:41:10.440Z,13.20
2019-02-20T14:43:40.165Z,11.00
2019-02-20T14:46:10.065Z,8.48
2019-02-20T14:48:39.805Z,11.88
2019-02-20T14:51:09.730Z,8.35
2019-02-20T14:53:39.435Z,6.75
2019-02-20T14:56:09.510Z,20.27
2019-02-20T14:58:39.151Z,9.58
2019-02-20T15:01:08.927Z,9.40
2019-02-20T15:03:38.554Z,9.80
2019-02-20T15:06:14.151Z,8.35
2019-02-20T15:08:44.211Z,12.35
2019-02-20T15:11:14.023Z,7.33
2019-02-20T15:13:43.795Z,14.73
2019-02-20T15:16:13.630Z,14.47
2019-02-20T15:18:43.442Z,11.20
2019-02-20T15:21:15.950Z,8.30
2019-02-20T15:23:46.272Z,11.78
2019-02-20T15:26:16.096Z,13.78
2019-02-20T15:28:45.890Z,9.20
2019-02-20T15:31:18.722Z,12.30
2019-02-20T15:33:48.503Z,9.15
2019-02-20T15:36:18.187Z,11.48
2019-02-20T15:38:48.080Z,10.18
2019-02-20T15:41:17.828Z,13.18
2019-02-20T15:43:47.574Z,11.60
2019-02-20T15:46:18.487Z,7.80
2019-02-20T15:48:48.211Z,8.73
2019-02-20T15:51:17.951Z,8.93
2019-02-20T15:53:47.675Z,7.90
2019-02-20T15:56:17.462Z,7.10
2019-02-20T15:58:47.156Z,14.45
2019-02-20T16:01:16.975Z,9.05
2019-02-20T16:03:46.724Z,11.75
2019-02-20T16:06:16.459Z,11.00
2019-02-20T16:08:46.642Z,9.95
2019-02-20T16:11:16.617Z,8.90
2019-02-20T16:13:46.292Z,11.22
2019-02-20T16:16:16.258Z,13.48
2019-02-20T16:18:46.051Z,16.45
2019-02-20T16:21:15.734Z,14.83
2019-02-20T16:23:45.827Z,17.75
2019-02-20T16:26:15.539Z,16.30
2019-02-20T16:28:45.272Z,14.98
2019-02-20T16:31:14.963Z,11.75
2019-02-20T16:33:44.666Z,9.83
2019-02-20T16:36:14.505Z,14.80
2019-02-20T16:38:44.340Z,19.75
2019-02-20T16:41:14.086Z,16.20
2019-02-20T16:43:45.078Z,12.88
2019-02-20T16:46:16.883Z,15.88
2019-02-20T16:48:46.208Z,14.28
2019-02-20T16:51:15.844Z,16.85
2019-02-20T16:53:45.814Z,16.77
2019-02-20T16:56:15.566Z,18.10
2019-02-20T16:58:45.249Z,15.50
2019-02-20T17:01:14.890Z,22.65
2019-02-20T17:03:44.690Z,21.20
2019-02-20T17:06:14.336Z,32.45
2019-02-20T17:08:44.035Z,17.32
2019-02-20T17:11:14.188Z,23.77
2019-02-20T17:13:47.536Z,21.95
2019-02-20T17:16:17.184Z,19.87
2019-02-20T17:18:47.096Z,19.00
2019-02-20T17:21:17.179Z,17.20
2019-02-20T17:23:46.955Z,16.67
2019-02-20T17:26:16.696Z,21.25
2019-02-20T17:28:46.415Z,16.48
2019-02-20T17:31:16.083Z,20.02
2019-02-20T17:33:45.757Z,16.42
2019-02-20T17:36:15.829Z,15.63
2019-02-20T17:38:45.918Z,19.57
2019-02-20T17:41:17.217Z,19.73
2019-02-20T17:43:47.043Z,14.68
2019-02-20T17:46:18.618Z,20.72
2019-02-20T17:48:48.136Z,13.20
2019-02-20T17:51:17.782Z,21.10
2019-02-20T17:53:47.573Z,17.10
2019-02-20T17:56:17.247Z,18.62
2019-02-20T17:58:46.991Z,19.90
2019-02-20T18:01:18.234Z,20.43
2019-02-20T18:03:47.930Z,17.05
2019-02-20T18:06:17.586Z,18.57
2019-02-20T18:08:47.611Z,17.70
2019-02-20T18:11:17.255Z,19.82
2019-02-20T18:13:46.992Z,22.35
2019-02-20T18:16:16.739Z,20.32
2019-02-20T18:18:46.472Z,19.85
2019-02-20T18:21:16.167Z,15.68
2019-02-20T18:23:46.050Z,20.12
2019-02-20T18:26:15.695Z,21.50
2019-02-20T18:28:45.585Z,17.62
2019-02-20T18:31:15.227Z,17.40
2019-02-20T18:33:44.929Z,17.95
2019-02-20T18:36:14.571Z,16.95
2019-02-20T18:38:44.273Z,22.58
2019-02-20T18:41:14.594Z,20.52
2019-02-20T18:43:44.555Z,28.57
2019-02-20T18:46:14.905Z,19.05
2019-02-20T18:48:44.756Z,20.10
2019-02-20T18:51:14.524Z,23.32
2019-02-20T18:53:45.079Z,22.62
2019-02-20T18:56:14.989Z,19.55
2019-02-20T18:58:44.678Z,22.62
2019-02-20T19:01:14.379Z,22.70
2019-02-20T19:03:44.312Z,20.23
2019-02-20T19:06:18.054Z,24.67
2019-02-20T19:09:12.163Z,21.10
2019-02-20T19:12:30.985Z,28.32
2019-02-20T19:15:53.881Z,20.92
2019-02-20T19:19:09.254Z,21.62
2019-02-20T19:22:23.214Z,21.60
2019-02-20T19:25:39.798Z,21.77
2019-02-20T19:28:44.011Z,21.65
2019-02-20T19:31:58.394Z,20.60
2019-02-20T19:35:00.113Z,21.35
2019-02-20T19:38:06.550Z,22.55
2019-02-20T19:41:23.020Z,23.98
2019-02-20T19:44:27.928Z,25.77
2019-02-20T19:47:43.131Z,21.48
2019-02-20T19:51:01.740Z,26.05
2019-02-20T19:53:56.141Z,28.23
2019-02-20T19:56:56.820Z,24.25
2019-02-20T20:00:23.816Z,20.43
2019-02-20T20:03:27.981Z,23.57
2019-02-20T20:06:20.852Z,22.42
2019-02-20T20:09:21.493Z,29.72
2019-02-20T20:12:35.335Z,23.83
2019-02-20T20:15:45.325Z,27.65
2019-02-20T20:18:52.258Z,22.00
2019-02-20T20:22:15.171Z,26.02
2019-02-20T20:25:15.047Z,21.27
2019-02-20T20:28:12.513Z,17.25
2019-02-20T20:31:21.610Z,23.92
2019-02-20T20:34:29.469Z,22.35
2019-02-20T20:37:30.034Z,24.30
2019-02-20T20:40:42.496Z,24.02
2019-02-20T20:44:06.425Z,26.45
2019-02-20T20:47:14.111Z,19.12
2019-02-20T20:50:16.219Z,25.15
2019-02-20T20:53:51.022Z,20.43
2019-02-20T20:57:18.290Z,25.65
2019-02-20T21:00:04.742Z,23.52
2019-02-20T21:02:49.151Z,22.50
2019-02-20T21:05:39.643Z,40.55
2019-02-20T21:08:57.989Z,29.00
2019-02-20T21:12:20.278Z,29.12
2019-02-20T21:15:12.247Z,33.38
2019-02-20T21:18:27.051Z,27.60
2019-02-20T21:21:13.727Z,18.45
2019-02-20T21:24:45.857Z,26.17
2019-02-20T21:28:17.728Z,22.50
2019-02-20T21:31:43.450Z,28.40
2019-02-20T21:34:47.047Z,23.20
2019-02-20T21:38:02.193Z,26.57
2019-02-20T21:40:58.078Z,22.22
2019-02-20T21:44:11.186Z,17.67
2019-02-20T21:47:21.840Z,21.27
2019-02-20T21:50:00.725Z,18.82
2019-02-20T21:53:02.763Z,17.77
2019-02-20T21:55:56.686Z,16.55
2019-02-20T21:58:39.416Z,18.60
2019-02-20T22:01:49.329Z,18.32
2019-02-20T22:04:47.353Z,24.37
2019-02-20T22:07:51.771Z,19.55
2019-02-20T22:10:50.068Z,15.40
2019-02-20T22:13:43.907Z,20.97
2019-02-20T22:16:45.892Z,16.77
2019-02-20T22:19:59.776Z,18.60
2019-02-20T22:23:03.682Z,19.30
2019-02-20T22:25:57.433Z,17.48
2019-02-20T22:28:56.322Z,16.12
2019-02-20T22:31:50.080Z,14.58
2019-02-20T22:35:02.962Z,18.10
2019-02-20T22:38:19.113Z,18.98
2019-02-20T22:41:13.976Z,15.72
2019-02-20T22:44:32.501Z,15.18
2019-02-20T22:47:32.394Z,13.43
2019-02-20T22:50:18.011Z,15.23
2019-02-20T22:53:07.803Z,16.70
2019-02-20T22:56:17.575Z,19.10
2019-02-20T22:59:43.757Z,17.23
2019-02-20T23:02:34.537Z,21.05
2019-02-20T23:05:53.473Z,16.48
2019-02-20T23:08:35.950Z,16.75
2019-02-20T23:11:52.756Z,14.63
2019-02-20T23:14:55.113Z,18.65
2019-02-20T23:17:26.959Z,13.85
2019-02-20T23:19:57.966Z,13.78
2019-02-20T23:22:27.662Z,14.63
2019-02-20T23:24:57.456Z,11.43
2019-02-20T23:27:27.117Z,11.35
2019-02-20T23:29:56.817Z,14.15
2019-02-20T23:32:26.509Z,15.08
2019-02-20T23:34:56.291Z,11.33
2019-02-20T23:37:26.035Z,17.17
2019-02-20T23:39:55.754Z,14.25
2019-02-20T23:42:25.602Z,10.95
2019-02-20T23:44:55.318Z,11.45
2019-02-20T23:47:25.009Z,16.12
2019-02-20T23:49:56.433Z,15.75
2019-02-20T23:52:26.026Z,16.27
2019-02-20T23:54:55.668Z,16.65
2019-02-20T23:57:25.346Z,13.08
2019-02-20T23:59:55.062Z,12.80
